Fitzwilliam, NH (03447)

3:19 PM EDT on September 04, 2015 (GMT -0400)
Collins Pond Road | | Change Station
CLOSE
Current Station
Personal Weather Station
Location: Fitzwilliam, NH
Elevation: 1188 ft
Nearby Weather Stations

Elev 1188 ft 42.76 °N, 72.14 °W | Updated 12 seconds ago

Mostly Cloudy
Mostly Cloudy
72.3 °F
Feels Like 76 °F
N
1.2
Wind Variable Wind from NNW
Gusts 0.0 mph

Today
High -- | Low -- °F
--% Chance of Precip.
Yesterday
High -- | Low -- °F
Precip. -- in
6:16 AM 7:18 PM
Waning Gibbous, 57% visible
Pressure 30.21 in
Visibility 10.0 miles
Clouds Mostly Cloudy 5500 ft
Heat Index 76 °F
Dew Point 60 °F
Humidity 65%
Rainfall 0.00 in
Snow Depth Not available.
UV 4 out of 12
Pollen 8.70 out of 12
Air Quality Not available.
Flu Activity Not available.
METAR KAFN 041852Z AUTO 00000KT 10SM BKN055 24/12 A3021 RMK AO2 SLP230 T02390117
Pressure 30.21 in
Visibility 10.0 miles
Clouds Mostly Cloudy 5500 ft
Heat Index 76 °F
Dew Point 60 °F
Humidity 65%
Rainfall 0.00 in
Snow Depth Not available.
UV 4 out of 12
Pollen 8.70 out of 12
Air Quality Not available.
Flu Activity Not available.
METAR KAFN 041852Z AUTO 00000KT 10SM BKN055 24/12 A3021 RMK AO2 SLP230 T02390117

10-Day Weather Forecast

×

Almanac

Astronomy

Sep. 04, 2015 Rise Set
Actual Time
Civil Twilight
Nautical Twilight
Astronomical Twilight
Moon
Length of Visible Light
Length of Day
Tomorrow will be .
, % of the Moon is Illuminated

Today's Extremes

State Highs State Lows

Community

WunderPhotos

Upload Photos

1,852,271 photos uploaded!

WunderBlogs® & News

Nearby

Air Quality

  Air Quality AQ Index Pollutant
Not available.

Snow Depth

Station Depth Elevation

Earthquake Activity

City Distance Mag. Time & Date
Minimum magnitude displayed is 2.5.

Coastal Water Temperatures

Place Temperature

Stations

Nearby Weather Stations

Station Location Temp. Windchill Dew Point Humidity Wind Precip. Elev Updated Type